Tierra Amarilla, New Mexico
Current Conditions -  °F | °C
As of 1:15 PM on Sunday 23 Nov 2014 (Local Time) from KPSO Reporting Station
Scattered Clouds Scattered Clouds  
Wind Chill: 29°   Ceiling: Unl
Heat Index: 38°   Visibility: 10mi
Dew Point:   Wind: 16mph
Humidity: 20%   Direction: 310°NW
Pressure: 29.78"   Gusts: 21mph
Location:  36.7°N, 106.55°W
Report Text: KPSO 232015Z AUTO 31014G18KT 10SM SCT080 SCT120 03/M18 A2978 RMK AO2 T00331178
Loading
Personal Weather Stations






























Interactive Weather Map New forecast layout! Learn more

10-Day Weather Forecast

Advertisements
Track Severe Weather on mobile